Time;durP1;ratioP1;P1;durP2;ratioP2;P2;SDS_P1;SDS_P2;PMS_P1;PMS_P2;Temp;Humidity;BMP_temperature;BMP_pressure;BME280_temperature;BME280_humidity;BME280_pressure;Samples;Min_cycle;Max_cycle;Signal;HPM_P1;HPM_P2
2021/08/26 00:01:10;;;;;;;0.40;0.20;;;14.30;99.90;;;;;;5032825;28;20767;-78
2021/08/26 00:06:21;;;;;;;0.40;0.20;;;14.30;99.90;;;;;;5033973;28;20394;-77
2021/08/26 00:08:48;;;;;;;0.40;0.20;;;14.40;99.90;;;;;;5032876;28;20470;-77
2021/08/26 00:11:16;;;;;;;0.40;0.20;;;14.50;99.90;;;;;;5033940;28;20750;-79
2021/08/26 00:13:43;;;;;;;0.40;0.30;;;14.40;99.90;;;;;;5032824;28;20411;-78
2021/08/26 00:16:09;;;;;;;0.40;0.20;;;14.40;99.90;;;;;;5033604;28;20433;-77
2021/08/26 00:18:35;;;;;;;0.40;0.30;;;14.30;99.90;;;;;;5033093;28;20462;-77
2021/08/26 00:21:00;;;;;;;0.40;0.20;;;14.30;99.90;;;;;;5033114;28;20478;-77
2021/08/26 00:23:27;;;;;;;0.40;0.20;;;14.30;99.90;;;;;;5033342;28;20429;-79
2021/08/26 00:25:53;;;;;;;0.40;0.20;;;14.40;99.90;;;;;;5032837;28;20383;-79
2021/08/26 00:28:19;;;;;;;0.40;0.20;;;14.30;99.90;;;;;;5033320;28;20446;-78
2021/08/26 00:30:45;;;;;;;0.40;0.20;;;14.40;99.90;;;;;;5032185;28;20387;-77
2021/08/26 00:33:10;;;;;;;0.40;0.20;;;14.40;99.90;;;;;;5033377;28;20887;-78
2021/08/26 00:35:36;;;;;;;0.40;0.28;;;14.50;99.90;;;;;;5032757;28;20379;-77
2021/08/26 00:38:02;;;;;;;0.40;0.20;;;14.60;99.90;;;;;;5014898;28;20450;-78
2021/08/26 00:40:28;;;;;;;0.40;0.20;;;14.50;99.90;;;;;;5033085;28;20481;-78
2021/08/26 00:42:53;;;;;;;0.40;0.20;;;14.50;99.90;;;;;;5032216;28;20399;-79
2021/08/26 00:45:19;;;;;;;0.40;0.20;;;14.60;99.90;;;;;;5032938;28;20713;-81
2021/08/26 00:47:47;;;;;;;0.40;0.20;;;14.50;99.90;;;;;;5032162;28;20378;-79
2021/08/26 00:50:14;;;;;;;0.40;0.20;;;14.50;99.90;;;;;;5032954;28;20380;-78
2021/08/26 00:52:40;;;;;;;0.40;0.20;;;14.40;99.90;;;;;;5031375;28;20473;-78
2021/08/26 00:55:07;;;;;;;0.40;0.20;;;14.50;99.90;;;;;;5032838;28;20388;-78
2021/08/26 00:57:34;;;;;;;0.40;0.20;;;14.40;99.90;;;;;;5032138;28;20410;-79
2021/08/26 01:00:02;;;;;;;0.40;0.30;;;14.50;99.90;;;;;;5032798;28;20383;-78
2021/08/26 01:02:51;;;;;;;0.40;0.20;;;14.40;99.90;;;;;;5033018;28;20423;-78
2021/08/26 01:05:37;;;;;;;0.40;0.20;;;14.40;99.90;;;;;;5031448;28;20406;-78
2021/08/26 01:08:12;;;;;;;0.40;0.20;;;14.30;99.90;;;;;;5015239;28;20953;-78
2021/08/26 01:10:46;;;;;;;0.40;0.20;;;14.20;99.90;;;;;;5032236;28;20415;-77
2021/08/26 01:13:13;;;;;;;0.40;0.20;;;14.10;99.90;;;;;;5032638;28;20806;-78
2021/08/26 01:15:39;;;;;;;0.40;0.20;;;14.20;99.90;;;;;;5031728;28;20486;-78
2021/08/26 01:18:05;;;;;;;0.40;0.20;;;14.10;99.90;;;;;;5032674;28;20470;-78
2021/08/26 01:20:31;;;;;;;0.40;0.20;;;13.90;99.90;;;;;;5031821;28;20423;-77
2021/08/26 01:22:57;;;;;;;0.40;0.20;;;14.00;99.90;;;;;;5031666;28;20407;-77
2021/08/26 01:25:26;;;;;;;0.40;0.25;;;14.30;99.90;;;;;;5031925;28;20418;-78
2021/08/26 01:27:53;;;;;;;0.40;0.20;;;14.00;99.90;;;;;;5031720;28;21100;-78
2021/08/26 01:30:23;;;;;;;0.40;0.20;;;14.00;99.90;;;;;;5031798;28;21182;-78
2021/08/26 01:32:52;;;;;;;0.40;0.20;;;14.00;99.90;;;;;;5031578;28;20433;-78
2021/08/26 01:35:19;;;;;;;0.40;0.20;;;13.90;99.90;;;;;;5032174;28;20449;-78
2021/08/26 01:37:45;;;;;;;0.40;0.25;;;13.80;99.90;;;;;;5031313;28;20426;-77
2021/08/26 01:40:11;;;;;;;0.40;0.20;;;14.00;99.90;;;;;;5032136;28;20463;-78
2021/08/26 01:42:37;;;;;;;0.40;0.20;;;14.00;99.90;;;;;;5031363;28;20438;-77
2021/08/26 01:45:04;;;;;;;0.40;0.20;;;14.10;99.90;;;;;;5032011;28;20783;-77
2021/08/26 01:47:30;;;;;;;0.40;0.20;;;14.20;99.90;;;;;;5032005;28;20380;-77
2021/08/26 01:49:55;;;;;;;0.40;0.20;;;14.30;99.90;;;;;;5031151;28;20634;-78
2021/08/26 01:52:23;;;;;;;0.40;0.30;;;14.00;99.90;;;;;;5031463;28;20423;-78
2021/08/26 01:54:54;;;;;;;0.40;0.20;;;14.00;99.90;;;;;;5030838;28;20879;-78
2021/08/26 01:57:21;;;;;;;0.40;0.20;;;13.90;99.90;;;;;;5031577;28;20917;-78
2021/08/26 01:59:47;;;;;;;0.40;0.20;;;13.90;99.90;;;;;;5031127;28;20844;-78
2021/08/26 02:02:13;;;;;;;0.40;0.20;;;13.80;99.90;;;;;;5031657;28;20482;-78
2021/08/26 02:04:39;;;;;;;0.40;0.20;;;14.10;99.90;;;;;;5031072;28;20433;-78
2021/08/26 02:07:05;;;;;;;0.40;0.20;;;14.00;99.90;;;;;;5031236;28;20384;-79
2021/08/26 02:09:30;;;;;;;0.40;0.20;;;14.00;99.90;;;;;;5031586;28;20735;-78
2021/08/26 02:11:56;;;;;;;0.40;0.20;;;13.90;99.90;;;;;;5030859;28;20454;-78
2021/08/26 02:14:22;;;;;;;0.40;0.20;;;13.90;99.90;;;;;;5031485;28;20402;-78
2021/08/26 02:16:48;;;;;;;0.40;0.20;;;13.80;99.90;;;;;;5030784;28;20413;-78
2021/08/26 02:19:13;;;;;;;0.40;0.20;;;13.60;99.90;;;;;;5031225;28;20444;-78
2021/08/26 02:21:39;;;;;;;0.40;0.20;;;13.50;99.90;;;;;;5030439;28;20380;-77
2021/08/26 02:24:05;;;;;;;0.40;0.20;;;13.60;99.90;;;;;;5031450;28;20872;-78
2021/08/26 02:26:31;;;;;;;0.40;0.30;;;13.50;99.90;;;;;;5031145;28;20383;-78
2021/08/26 02:28:57;;;;;;;0.40;0.20;;;13.50;99.90;;;;;;5030135;28;20415;-78
2021/08/26 02:31:22;;;;;;;0.40;0.30;;;13.50;99.90;;;;;;5031179;28;20415;-80
2021/08/26 02:33:48;;;;;;;0.40;0.20;;;13.40;99.90;;;;;;5030398;28;20410;-80
2021/08/26 02:36:14;;;;;;;0.40;0.20;;;13.30;99.90;;;;;;5030117;28;20395;-78
2021/08/26 02:38:40;;;;;;;0.40;0.20;;;13.30;99.90;;;;;;5030075;28;20426;-78
2021/08/26 02:41:06;;;;;;;0.40;0.30;;;13.30;99.90;;;;;;5013659;28;20394;-78
2021/08/26 02:43:32;;;;;;;0.40;0.30;;;13.20;99.90;;;;;;5031163;28;20387;-78
2021/08/26 02:45:58;;;;;;;0.40;0.20;;;13.30;99.90;;;;;;5030356;28;20387;-78
2021/08/26 02:48:23;;;;;;;0.40;0.20;;;13.10;99.90;;;;;;5031054;28;20389;-78
2021/08/26 02:50:49;;;;;;;0.40;0.20;;;13.10;99.90;;;;;;5029335;28;20399;-78
2021/08/26 02:53:15;;;;;;;0.40;0.20;;;13.10;99.90;;;;;;5031056;28;20415;-78
2021/08/26 02:55:40;;;;;;;0.40;0.20;;;13.10;99.90;;;;;;5030072;28;20391;-77
2021/08/26 02:58:06;;;;;;;0.40;0.20;;;13.10;99.90;;;;;;5030888;28;20386;-77
2021/08/26 03:00:32;;;;;;;0.40;0.20;;;13.10;99.90;;;;;;5031117;28;20794;-78
2021/08/26 03:02:57;;;;;;;0.40;0.30;;;13.10;99.90;;;;;;5030462;28;20538;-78
2021/08/26 03:05:23;;;;;;;0.40;0.20;;;13.20;99.90;;;;;;5030829;28;20383;-77
2021/08/26 03:07:49;;;;;;;0.40;0.20;;;13.40;99.90;;;;;;5030160;28;20863;-78
2021/08/26 03:10:14;;;;;;;0.40;0.20;;;13.30;99.90;;;;;;5030978;28;20385;-78
2021/08/26 03:12:40;;;;;;;0.40;0.20;;;13.10;99.90;;;;;;5029955;28;20403;-77
2021/08/26 03:15:06;;;;;;;0.40;0.20;;;13.30;99.90;;;;;;5030257;28;20452;-78
2021/08/26 03:17:32;;;;;;;0.40;0.20;;;13.40;99.90;;;;;;5030891;28;20730;-78
2021/08/26 03:19:57;;;;;;;0.40;0.30;;;13.40;99.90;;;;;;5029003;28;20521;-77
2021/08/26 03:22:23;;;;;;;0.40;0.20;;;13.40;99.90;;;;;;5030634;28;20446;-78
2021/08/26 03:24:49;;;;;;;0.40;0.20;;;13.40;99.90;;;;;;5012414;28;20399;-77
2021/08/26 03:27:15;;;;;;;0.40;0.20;;;13.50;99.90;;;;;;5030719;28;20390;-77
2021/08/26 03:29:41;;;;;;;0.40;0.20;;;13.50;99.90;;;;;;5030066;28;20387;-77
2021/08/26 03:32:07;;;;;;;0.40;0.20;;;13.40;99.90;;;;;;5030765;28;20466;-77
2021/08/26 03:34:32;;;;;;;0.40;0.30;;;13.30;99.90;;;;;;5013074;28;20522;-78
2021/08/26 03:36:58;;;;;;;0.40;0.20;;;13.10;99.90;;;;;;5030236;28;20406;-77
2021/08/26 03:39:23;;;;;;;0.40;0.20;;;13.20;99.90;;;;;;5030578;28;20388;-77
2021/08/26 03:41:49;;;;;;;0.40;0.20;;;13.10;99.90;;;;;;5029735;28;20743;-77
2021/08/26 03:44:15;;;;;;;0.40;0.20;;;13.10;99.90;;;;;;5030754;28;20379;-78
2021/08/26 03:46:41;;;;;;;0.40;0.20;;;13.00;99.90;;;;;;5012503;28;20863;-77
2021/08/26 03:49:06;;;;;;;0.40;0.20;;;12.80;99.90;;;;;;5030569;28;20864;-78
2021/08/26 03:51:32;;;;;;;0.40;0.20;;;12.80;99.90;;;;;;5030198;28;20901;-78
2021/08/26 03:53:58;;;;;;;0.40;0.20;;;12.90;99.90;;;;;;5029318;28;20501;-78
2021/08/26 03:56:23;;;;;;;0.40;0.20;;;12.80;99.90;;;;;;5030537;28;20923;-78
2021/08/26 03:58:49;;;;;;;0.40;0.20;;;12.70;99.90;;;;;;5029041;28;20403;-78
2021/08/26 04:01:14;;;;;;;0.40;0.20;;;12.50;99.90;;;;;;5030961;28;20394;-78
2021/08/26 04:03:40;;;;;;;0.40;0.20;;;12.50;99.90;;;;;;5030217;28;20867;-78
2021/08/26 04:06:06;;;;;;;0.40;0.20;;;12.50;99.90;;;;;;5029431;28;20383;-79
2021/08/26 04:08:31;;;;;;;0.40;0.20;;;12.50;99.90;;;;;;5030104;28;20836;-78
2021/08/26 04:10:57;;;;;;;0.40;0.20;;;12.40;99.90;;;;;;5029565;28;20984;-78
2021/08/26 04:13:22;;;;;;;0.40;0.20;;;12.40;99.90;;;;;;5029987;28;20415;-77
2021/08/26 04:15:49;;;;;;;0.40;0.20;;;12.30;99.90;;;;;;5029092;28;20426;-78
2021/08/26 04:18:15;;;;;;;0.40;0.20;;;12.30;99.90;;;;;;5030193;28;20478;-78
2021/08/26 04:20:40;;;;;;;0.40;0.20;;;12.40;99.90;;;;;;5031906;28;20379;-79
2021/08/26 04:23:07;;;;;;;0.40;0.20;;;12.30;99.90;;;;;;5032989;28;20418;-79
2021/08/26 04:25:33;;;;;;;0.40;0.20;;;12.30;99.90;;;;;;5033738;28;20387;-79
2021/08/26 04:27:58;;;;;;;0.40;0.20;;;12.20;99.90;;;;;;5032926;28;20401;-78
2021/08/26 04:30:24;;;;;;;0.40;0.20;;;12.30;99.90;;;;;;5033240;28;20693;-78
2021/08/26 04:32:50;;;;;;;0.40;0.20;;;12.20;99.90;;;;;;5032475;28;20416;-77
2021/08/26 04:35:16;;;;;;;0.40;0.20;;;12.10;99.90;;;;;;5033391;28;20410;-78
2021/08/26 04:37:41;;;;;;;0.40;0.20;;;12.30;99.90;;;;;;5033365;28;20863;-78
2021/08/26 04:40:08;;;;;;;0.40;0.20;;;12.30;99.90;;;;;;5032450;28;20391;-79
2021/08/26 04:42:33;;;;;;;0.40;0.20;;;12.40;99.90;;;;;;5032936;28;20391;-80
2021/08/26 04:44:59;;;;;;;0.40;0.20;;;12.40;99.90;;;;;;5032379;28;20387;-79
2021/08/26 04:47:25;;;;;;;0.40;0.20;;;12.40;99.90;;;;;;5033328;28;20374;-80
2021/08/26 04:49:50;;;;;;;0.40;0.20;;;12.30;99.90;;;;;;5032897;28;20448;-80
2021/08/26 04:52:16;;;;;;;0.40;0.30;;;12.30;99.90;;;;;;5032822;28;20427;-80
2021/08/26 04:54:41;;;;;;;0.40;0.20;;;12.30;99.90;;;;;;5032694;28;20391;-79
2021/08/26 04:57:07;;;;;;;0.40;0.30;;;12.30;99.90;;;;;;5032419;28;20383;-79
2021/08/26 04:59:33;;;;;;;0.40;0.20;;;12.30;99.90;;;;;;5032872;28;20878;-79
2021/08/26 05:01:59;;;;;;;0.40;0.20;;;12.20;99.90;;;;;;5031681;28;20391;-79
2021/08/26 05:04:24;;;;;;;0.40;0.20;;;12.20;99.90;;;;;;5032699;28;20479;-79
2021/08/26 05:06:51;;;;;;;0.40;0.20;;;12.10;99.90;;;;;;5031809;28;20875;-78
2021/08/26 05:09:17;;;;;;;0.40;0.20;;;12.20;99.90;;;;;;5032845;28;20517;-78
2021/08/26 05:11:43;;;;;;;0.40;0.20;;;12.30;99.90;;;;;;5032783;28;20791;-78
2021/08/26 05:14:08;;;;;;;0.40;0.20;;;12.50;99.90;;;;;;5031911;28;20521;-78
2021/08/26 05:16:34;;;;;;;0.40;0.20;;;12.60;99.90;;;;;;5033108;28;20379;-78
2021/08/26 05:19:00;;;;;;;0.40;0.20;;;12.70;99.90;;;;;;5031956;28;20379;-78
2021/08/26 05:21:25;;;;;;;0.40;0.20;;;12.80;99.90;;;;;;5032516;28;20796;-78
2021/08/26 05:23:51;;;;;;;0.40;0.20;;;12.80;99.90;;;;;;5031818;28;20418;-78
2021/08/26 05:26:17;;;;;;;0.40;0.20;;;12.70;99.90;;;;;;5032593;28;20512;-78
2021/08/26 05:28:42;;;;;;;0.40;0.20;;;12.70;99.90;;;;;;5032599;28;20398;-78
2021/08/26 05:31:09;;;;;;;0.40;0.30;;;12.90;99.90;;;;;;5030862;28;20382;-78
2021/08/26 05:33:35;;;;;;;0.40;0.30;;;12.80;99.90;;;;;;5031694;28;20445;-79
2021/08/26 05:36:00;;;;;;;0.40;0.20;;;12.90;99.90;;;;;;5030988;28;20411;-78
2021/08/26 05:38:27;;;;;;;0.40;0.20;;;12.90;99.90;;;;;;5032274;28;20766;-78
2021/08/26 05:40:52;;;;;;;0.40;0.20;;;12.90;99.90;;;;;;5031318;28;20910;-78
2021/08/26 05:43:18;;;;;;;0.40;0.20;;;13.00;99.90;;;;;;5032036;28;20384;-78
2021/08/26 05:45:44;;;;;;;0.40;0.20;;;13.00;99.90;;;;;;5031288;28;20395;-78
2021/08/26 05:48:09;;;;;;;0.40;0.20;;;13.10;99.90;;;;;;5031285;28;20638;-78
2021/08/26 05:50:35;;;;;;;0.40;0.20;;;13.00;99.90;;;;;;5027670;28;20401;-78
2021/08/26 05:53:01;;;;;;;0.40;0.20;;;13.00;99.90;;;;;;5029067;28;20411;-79
2021/08/26 05:55:27;;;;;;;0.40;0.30;;;12.70;99.90;;;;;;5029389;28;20387;-78
2021/08/26 05:57:52;;;;;;;0.40;0.20;;;12.70;99.90;;;;;;5029085;28;20541;-78
2021/08/26 06:00:18;;;;;;;0.40;0.20;;;12.70;99.90;;;;;;5028353;28;20432;-79
2021/08/26 06:02:44;;;;;;;0.40;0.20;;;12.90;99.90;;;;;;5028831;28;20394;-79
2021/08/26 06:05:10;;;;;;;0.40;0.30;;;12.70;99.90;;;;;;5028103;28;20386;-78
2021/08/26 06:07:38;;;;;;;0.40;0.20;;;12.80;99.90;;;;;;5028812;28;20455;-78
2021/08/26 06:10:05;;;;;;;0.40;0.20;;;12.80;99.90;;;;;;5027884;28;20395;-78
2021/08/26 06:12:31;;;;;;;0.40;0.20;;;13.00;99.90;;;;;;5028902;28;20488;-77
2021/08/26 06:14:56;;;;;;;0.40;0.20;;;13.10;99.90;;;;;;5027927;28;20425;-78
2021/08/26 06:17:22;;;;;;;0.40;0.20;;;13.00;99.90;;;;;;5029192;28;20893;-78
2021/08/26 06:19:48;;;;;;;0.40;0.20;;;13.10;99.90;;;;;;5028748;28;20393;-79
2021/08/26 06:22:13;;;;;;;1.80;0.80;;;13.10;99.90;;;;;;5027038;28;20402;-79
2021/08/26 06:24:39;;;;;;;0.40;0.20;;;13.10;99.90;;;;;;5028437;28;20829;-79
2021/08/26 06:27:05;;;;;;;0.40;0.20;;;13.30;99.90;;;;;;5025652;28;20860;-79
2021/08/26 06:29:30;;;;;;;0.40;0.20;;;13.30;99.90;;;;;;5015600;28;20883;-79
2021/08/26 06:31:56;;;;;;;0.40;0.20;;;13.30;99.90;;;;;;5026174;28;20459;-78
2021/08/26 06:34:21;;;;;;;0.40;0.20;;;13.40;99.90;;;;;;5029219;28;20918;-80
2021/08/26 06:36:47;;;;;;;0.40;0.20;;;13.40;99.90;;;;;;5028261;28;20390;-82
2021/08/26 06:39:13;;;;;;;0.40;0.20;;;13.60;99.90;;;;;;5024864;28;20559;-82
2021/08/26 06:41:38;;;;;;;0.40;0.20;;;13.60;99.90;;;;;;5034526;28;20458;-78
2021/08/26 06:44:04;;;;;;;0.40;0.20;;;13.60;99.90;;;;;;5035732;28;20395;-78
2021/08/26 06:46:30;;;;;;;0.40;0.20;;;13.80;99.90;;;;;;5028227;28;20819;-78
2021/08/26 06:48:56;;;;;;;0.40;0.30;;;14.00;99.90;;;;;;5028649;28;20395;-77
2021/08/26 06:51:22;;;;;;;0.40;0.20;;;14.00;99.90;;;;;;5028459;28;20390;-78
2021/08/26 06:53:48;;;;;;;0.40;0.20;;;14.00;99.90;;;;;;5028792;28;20510;-78
2021/08/26 06:56:15;;;;;;;0.40;0.20;;;14.00;99.90;;;;;;5027977;28;20690;-78
2021/08/26 06:58:41;;;;;;;0.40;0.20;;;14.00;99.90;;;;;;5028344;28;20897;-79
2021/08/26 07:01:06;;;;;;;0.40;0.20;;;14.20;99.90;;;;;;5027220;28;20379;-78
2021/08/26 07:03:32;;;;;;;0.40;0.20;;;14.30;99.90;;;;;;5028925;28;20800;-78
2021/08/26 07:05:57;;;;;;;0.40;0.30;;;14.40;99.90;;;;;;5027548;28;20478;-77
2021/08/26 07:08:23;;;;;;;0.40;0.20;;;14.60;99.90;;;;;;5028885;28;20382;-78
2021/08/26 07:10:49;;;;;;;0.40;0.30;;;14.70;99.90;;;;;;5028177;28;20414;-78
2021/08/26 07:13:15;;;;;;;0.40;0.20;;;14.90;99.90;;;;;;5027552;28;20553;-77
2021/08/26 07:15:40;;;;;;;0.40;0.20;;;14.90;99.90;;;;;;5027865;28;20425;-78
2021/08/26 07:18:06;;;;;;;0.40;0.30;;;15.00;99.90;;;;;;5027440;28;20414;-78
2021/08/26 07:20:32;;;;;;;0.40;0.30;;;15.20;99.90;;;;;;5027345;28;20376;-77
2021/08/26 07:22:58;;;;;;;0.40;0.30;;;15.30;99.90;;;;;;5027202;28;20505;-77
2021/08/26 07:25:24;;;;;;;0.40;0.20;;;15.40;99.90;;;;;;5028446;28;20475;-77
2021/08/26 07:27:50;;;;;;;0.40;0.30;;;15.50;99.90;;;;;;5028010;28;20426;-76
2021/08/26 07:30:15;;;;;;;0.40;0.30;;;15.50;99.90;;;;;;5026959;28;20430;-77
2021/08/26 07:32:41;;;;;;;0.40;0.20;;;15.60;99.90;;;;;;5027412;28;20446;-76
2021/08/26 07:35:07;;;;;;;0.40;0.20;;;15.70;99.90;;;;;;5027299;28;20380;-77
2021/08/26 07:37:33;;;;;;;0.40;0.20;;;15.80;99.90;;;;;;5014346;28;20462;-76
2021/08/26 07:39:58;;;;;;;0.40;0.20;;;15.90;99.90;;;;;;5027455;28;20466;-76
2021/08/26 07:42:24;;;;;;;0.40;0.20;;;15.90;99.90;;;;;;5023626;28;20445;-76
2021/08/26 07:44:50;;;;;;;0.40;0.20;;;15.90;99.90;;;;;;5027075;28;20461;-77
2021/08/26 07:47:15;;;;;;;0.40;0.20;;;16.10;99.90;;;;;;5026307;28;20395;-77
2021/08/26 07:49:41;;;;;;;0.40;0.20;;;16.10;99.90;;;;;;5027354;28;20379;-77
2021/08/26 07:52:07;;;;;;;0.40;0.30;;;16.20;99.90;;;;;;5026267;28;21002;-77
2021/08/26 07:54:32;;;;;;;0.40;0.20;;;16.30;99.90;;;;;;5027240;28;20541;-77
2021/08/26 07:56:59;;;;;;;0.40;0.20;;;16.30;99.90;;;;;;5030832;28;20387;-77
2021/08/26 07:59:25;;;;;;;0.40;0.20;;;16.40;99.90;;;;;;5028008;28;20398;-78
2021/08/26 08:01:50;;;;;;;0.40;0.20;;;16.50;99.90;;;;;;5030730;28;20890;-77
2021/08/26 08:04:16;;;;;;;0.40;0.30;;;16.50;99.90;;;;;;5030301;28;20398;-78
2021/08/26 08:06:42;;;;;;;0.40;0.20;;;16.70;99.90;;;;;;5032040;28;20380;-78
2021/08/26 08:09:07;;;;;;;0.40;0.20;;;16.80;99.90;;;;;;5031182;28;20394;-77
2021/08/26 08:11:33;;;;;;;0.40;0.20;;;16.80;99.90;;;;;;5030563;28;20393;-77
2021/08/26 08:14:01;;;;;;;0.40;0.20;;;16.90;99.90;;;;;;5030314;28;20406;-77
2021/08/26 08:16:27;;;;;;;0.40;0.20;;;17.00;99.90;;;;;;5031092;28;20395;-79
2021/08/26 08:18:53;;;;;;;0.40;0.30;;;17.20;99.90;;;;;;5031130;28;20445;-78
2021/08/26 08:21:18;;;;;;;0.40;0.20;;;17.40;99.90;;;;;;5028699;28;20414;-77
2021/08/26 08:23:44;;;;;;;0.40;0.20;;;17.70;99.90;;;;;;5030479;28;20725;-77
2021/08/26 08:26:13;;;;;;;0.40;0.30;;;17.80;99.90;;;;;;5029898;28;20397;-78
2021/08/26 08:28:38;;;;;;;0.40;0.30;;;18.10;99.90;;;;;;5030860;28;20513;-77
2021/08/26 08:31:05;;;;;;;0.40;0.20;;;18.30;99.90;;;;;;5029250;28;20787;-78
2021/08/26 08:33:32;;;;;;;0.40;0.20;;;18.40;99.90;;;;;;5030848;28;20415;-78
2021/08/26 08:35:57;;;;;;;0.40;0.30;;;18.50;99.90;;;;;;5030473;28;20423;-77
2021/08/26 08:38:23;;;;;;;0.50;0.40;;;18.50;99.90;;;;;;5030548;28;20818;-76
2021/08/26 08:40:49;;;;;;;0.40;0.20;;;18.50;99.90;;;;;;5030646;28;20387;-75
2021/08/26 08:43:15;;;;;;;0.40;0.20;;;18.50;99.90;;;;;;5029361;28;20407;-74
2021/08/26 08:45:48;;;;;;;0.40;0.20;;;18.50;99.90;;;;;;5020349;28;20387;-75
2021/08/26 08:48:15;;;;;;;0.40;0.20;;;18.50;99.90;;;;;;5030325;28;20383;-76
2021/08/26 08:50:42;;;;;;;0.40;0.20;;;18.50;99.90;;;;;;5029808;28;20457;-75
2021/08/26 08:53:15;;;;;;;0.40;0.30;;;18.70;99.90;;;;;;5029469;28;20415;-76
2021/08/26 08:55:47;;;;;;;0.40;0.20;;;18.60;99.90;;;;;;5036084;28;20399;-75
2021/08/26 08:58:14;;;;;;;0.40;0.30;;;18.50;99.90;;;;;;5030206;28;20391;-76
2021/08/26 09:00:40;;;;;;;0.40;0.20;;;18.60;99.90;;;;;;5029824;28;20400;-75
2021/08/26 09:03:05;;;;;;;0.40;0.20;;;18.60;99.90;;;;;;5029660;28;20442;-77
2021/08/26 09:05:50;;;;;;;0.40;0.20;;;18.60;99.90;;;;;;5035513;28;20397;-74
2021/08/26 09:08:16;;;;;;;0.40;0.20;;;18.70;99.90;;;;;;5029988;28;20395;-75
2021/08/26 09:10:43;;;;;;;0.40;0.20;;;18.70;99.60;;;;;;5030156;28;20387;-76
2021/08/26 09:13:09;;;;;;;0.90;0.60;;;18.90;99.40;;;;;;5029734;28;20436;-75
2021/08/26 09:15:35;;;;;;;0.40;0.20;;;19.00;99.70;;;;;;5030532;28;20379;-77
2021/08/26 09:18:14;;;;;;;0.40;0.20;;;19.10;97.70;;;;;;5030165;28;20746;-77
2021/08/26 09:20:57;;;;;;;0.40;0.20;;;19.20;96.50;;;;;;5029855;28;21087;-74
2021/08/26 09:23:26;;;;;;;0.40;0.20;;;19.10;96.90;;;;;;5029863;28;20438;-75
2021/08/26 09:25:54;;;;;;;0.40;0.20;;;19.30;95.80;;;;;;5030373;28;20395;-74
2021/08/26 09:28:32;;;;;;;0.40;0.30;;;19.20;96.20;;;;;;5029154;28;20980;-74
2021/08/26 09:31:12;;;;;;;0.40;0.30;;;19.50;96.20;;;;;;5029527;28;20410;-75
2021/08/26 09:34:00;;;;;;;0.40;0.30;;;19.60;96.70;;;;;;5033311;28;20856;-76
2021/08/26 09:36:32;;;;;;;0.40;0.20;;;19.50;96.50;;;;;;5029462;28;20388;-75
2021/08/26 09:39:04;;;;;;;0.40;0.20;;;19.70;96.10;;;;;;5029632;28;20397;-75
2021/08/26 09:41:52;;;;;;;0.40;0.20;;;19.80;96.40;;;;;;5029572;28;20391;-75
2021/08/26 09:44:19;;;;;;;0.40;0.20;;;19.80;97.10;;;;;;5029135;28;20387;-74
2021/08/26 09:46:49;;;;;;;0.40;0.20;;;19.90;96.80;;;;;;5029978;28;20385;-75
2021/08/26 09:49:20;;;;;;;0.40;0.20;;;20.00;96.70;;;;;;5029186;28;20388;-76
2021/08/26 09:52:01;;;;;;;0.40;0.30;;;20.10;95.30;;;;;;5029119;28;20399;-76
2021/08/26 09:54:49;;;;;;;0.40;0.30;;;20.10;96.00;;;;;;5029849;28;20431;-76
2021/08/26 09:57:29;;;;;;;0.40;0.20;;;20.00;95.40;;;;;;5028530;28;20469;-76
2021/08/26 09:59:59;;;;;;;0.40;0.30;;;20.00;95.90;;;;;;5028947;28;20864;-80
2021/08/26 10:02:29;;;;;;;0.40;0.30;;;19.80;96.20;;;;;;5027976;28;21127;-76
2021/08/26 10:05:00;;;;;;;0.40;0.20;;;19.80;95.40;;;;;;5028931;28;20403;-75
2021/08/26 10:07:33;;;;;;;0.40;0.20;;;19.90;95.90;;;;;;5028917;28;20387;-76
2021/08/26 10:09:58;;;;;;;0.40;0.20;;;20.00;95.80;;;;;;5036408;28;20401;-76
2021/08/26 10:12:24;;;;;;;0.40;0.20;;;19.80;96.20;;;;;;5024667;28;20433;-75
2021/08/26 10:14:52;;;;;;;0.40;0.20;;;19.80;96.80;;;;;;5027920;28;20510;-76
2021/08/26 10:17:18;;;;;;;0.40;0.20;;;20.00;96.50;;;;;;5027050;28;20375;-76
2021/08/26 10:19:44;;;;;;;0.40;0.20;;;20.10;95.50;;;;;;5028419;28;20383;-76
2021/08/26 10:22:10;;;;;;;0.40;0.20;;;20.00;95.00;;;;;;5026759;28;20902;-78
2021/08/26 10:24:37;;;;;;;0.40;0.20;;;19.90;95.50;;;;;;5028622;28;20391;-78
2021/08/26 10:27:17;;;;;;;0.40;0.20;;;19.70;95.80;;;;;;5036933;28;20613;-77
2021/08/26 10:29:47;;;;;;;0.40;0.20;;;19.70;96.20;;;;;;5028212;28;20735;-76
2021/08/26 10:32:24;;;;;;;0.40;0.20;;;19.70;96.70;;;;;;5026849;28;20395;-76
2021/08/26 10:35:14;;;;;;;0.40;0.20;;;19.80;96.20;;;;;;5026395;28;20747;-75
2021/08/26 10:37:43;;;;;;;0.40;0.20;;;19.80;96.40;;;;;;5014859;28;20490;-78
2021/08/26 10:40:31;;;;;;;0.40;0.22;;;19.80;96.50;;;;;;5026916;28;20383;-75
2021/08/26 10:42:57;;;;;;;0.40;0.20;;;19.80;96.70;;;;;;5027577;28;20787;-77
2021/08/26 10:45:30;;;;;;;0.40;0.20;;;19.90;96.40;;;;;;5027010;28;20403;-76
2021/08/26 10:48:03;;;;;;;0.40;0.20;;;19.90;96.30;;;;;;5027875;28;20433;-77
2021/08/26 10:50:32;;;;;;;0.40;0.20;;;19.80;96.60;;;;;;5026477;28;20543;-78
2021/08/26 10:53:11;;;;;;;0.40;0.20;;;19.70;98.50;;;;;;5027591;28;20434;-76
2021/08/26 10:55:50;;;;;;;0.40;0.20;;;19.80;97.50;;;;;;5026429;28;20908;-76
2021/08/26 10:58:22;;;;;;;0.40;0.30;;;19.80;98.70;;;;;;5032524;28;20403;-77
2021/08/26 11:00:50;;;;;;;0.40;0.20;;;19.70;99.10;;;;;;5026938;28;20399;-77
2021/08/26 11:03:45;;;;;;;0.40;0.20;;;19.70;99.10;;;;;;5012781;28;20452;-76
2021/08/26 11:06:16;;;;;;;0.70;0.70;;;19.50;99.30;;;;;;5026849;28;20383;-74
2021/08/26 11:08:47;;;;;;;0.40;0.20;;;19.60;99.60;;;;;;5027451;28;20438;-75
2021/08/26 11:11:25;;;;;;;0.40;0.20;;;19.60;99.70;;;;;;5031200;28;20743;-74
2021/08/26 11:13:52;;;;;;;0.40;0.20;;;19.50;99.90;;;;;;5027868;28;20422;-75
2021/08/26 11:16:23;;;;;;;0.40;0.20;;;19.60;99.90;;;;;;5026180;28;20399;-75
2021/08/26 11:18:53;;;;;;;0.40;0.30;;;19.50;99.70;;;;;;5027446;28;20755;-74
2021/08/26 11:21:41;;;;;;;0.40;0.20;;;19.50;99.80;;;;;;5026444;28;20391;-74
2021/08/26 11:24:07;;;;;;;0.40;0.20;;;19.60;99.50;;;;;;5039195;28;20406;-74
2021/08/26 11:26:46;;;;;;;0.40;0.20;;;19.50;99.40;;;;;;5026893;28;20402;-73
2021/08/26 11:29:18;;;;;;;0.40;0.20;;;19.50;99.50;;;;;;5029260;28;20533;-74
2021/08/26 11:31:58;;;;;;;0.40;0.20;;;19.40;99.60;;;;;;5030671;28;20427;-74
2021/08/26 11:34:43;;;;;;;0.40;0.20;;;19.30;99.90;;;;;;5030699;28;20422;-74
2021/08/26 11:37:17;;;;;;;0.40;0.20;;;19.20;99.90;;;;;;5031070;28;20395;-74
2021/08/26 11:39:49;;;;;;;0.40;0.30;;;19.30;99.80;;;;;;5034556;28;20406;-73
2021/08/26 11:42:18;;;;;;;0.40;0.20;;;19.00;99.30;;;;;;5028481;28;20709;-74
2021/08/26 11:44:45;;;;;;;0.40;0.20;;;19.00;99.30;;;;;;5030666;28;20453;-73
2021/08/26 11:47:10;;;;;;;0.40;0.20;;;19.00;99.00;;;;;;5030977;28;20510;-75
2021/08/26 11:49:38;;;;;;;0.40;0.20;;;18.80;99.30;;;;;;5030544;28;20802;-75
2021/08/26 11:52:09;;;;;;;0.40;0.20;;;19.00;99.40;;;;;;5030533;28;20441;-74
2021/08/26 11:54:41;;;;;;;0.40;0.20;;;18.90;98.00;;;;;;5026104;28;20415;-75
2021/08/26 11:57:09;;;;;;;0.40;0.20;;;18.90;99.00;;;;;;5030458;28;20388;-73
2021/08/26 11:59:37;;;;;;;0.60;0.50;;;18.80;99.60;;;;;;5030009;28;20390;-75
2021/08/26 12:02:18;;;;;;;0.40;0.20;;;19.00;99.80;;;;;;5030857;28;20418;-72
2021/08/26 12:04:45;;;;;;;0.40;0.20;;;18.90;99.90;;;;;;5030323;28;20406;-75
2021/08/26 12:07:26;;;;;;;0.40;0.20;;;18.80;99.90;;;;;;5030665;28;20406;-74
2021/08/26 12:09:54;;;;;;;0.40;0.20;;;18.90;99.90;;;;;;5029461;28;20411;-73
2021/08/26 12:12:20;;;;;;;0.40;0.20;;;18.80;99.90;;;;;;5029918;28;20409;-75
2021/08/26 12:14:46;;;;;;;0.40;0.20;;;18.70;99.90;;;;;;5030141;28;20391;-76
2021/08/26 12:17:16;;;;;;;0.40;0.20;;;18.60;99.90;;;;;;5030586;28;20406;-75
2021/08/26 12:19:43;;;;;;;0.40;0.20;;;18.70;99.90;;;;;;5030594;28;20398;-74
2021/08/26 12:22:12;;;;;;;0.40;0.20;;;18.70;99.90;;;;;;5026766;28;20436;-75
2021/08/26 12:24:49;;;;;;;0.40;0.20;;;18.60;99.90;;;;;;5030465;28;20414;-74
2021/08/26 12:27:14;;;;;;;0.40;0.20;;;18.60;99.90;;;;;;5029533;28;20755;-74
2021/08/26 12:29:45;;;;;;;0.40;0.20;;;18.60;99.90;;;;;;5030669;28;20463;-74
2021/08/26 12:32:31;;;;;;;0.40;0.20;;;18.40;99.90;;;;;;5030013;28;20482;-74
2021/08/26 12:35:23;;;;;;;0.40;0.20;;;18.20;99.90;;;;;;5037557;28;20395;-74
2021/08/26 12:37:58;;;;;;;0.40;0.20;;;18.30;99.90;;;;;;5030581;28;20383;-74
2021/08/26 12:40:26;;;;;;;0.40;0.22;;;18.10;99.90;;;;;;5028753;28;20425;-75
2021/08/26 12:42:59;;;;;;;0.40;0.30;;;18.20;99.90;;;;;;5030061;28;20532;-75
2021/08/26 12:45:25;;;;;;;0.40;0.30;;;18.10;99.90;;;;;;5029764;28;20402;-74
2021/08/26 12:47:51;;;;;;;0.40;0.20;;;18.00;99.90;;;;;;5030438;28;20743;-74
2021/08/26 12:50:31;;;;;;;0.40;0.20;;;18.10;99.90;;;;;;5029717;28;20835;-74
2021/08/26 12:52:57;;;;;;;0.40;0.20;;;18.00;99.90;;;;;;5032408;28;20430;-74
2021/08/26 12:55:23;;;;;;;0.40;0.40;;;17.50;99.90;;;;;;5031617;28;20387;-74